KCGI/CGI METAR and TAF weather

Enter ICAO airport designator
Station Type Date Time Source
KCGI METAR 2023/01/30 10:53 UTC NOAA

KCGI 301053Z AUTO 35013KT 5SM BR OVC008 M01/M02 A3025 RMK AO2 CIG 006V010 SLP247 T10111022


Station Type Date Time Source
KCGI Decoded METAR 2023/01/30 10:53 UTC NOAA

CAPE GIRARDEAU REGIONAL, MO, United States (KCGI) 37-14N 089-35W 102M
Jan 30, 2023 - 05:53 AM EST / 2023.01.30 1053 UTC
Wind: from the N (350 degrees) at 15 MPH (13 KT):0
Visibility: 5 mile(s):0
Sky conditions: overcast
Weather: mist
Temperature: 30.0 F (-1.1 C)
Windchill: 19 F (-7 C):1
Dew Point: 28.0 F (-2.2 C)
Relative Humidity: 92%
Pressure (altimeter): 30.25 in. Hg (1024 hPa)
ob: KCGI 301053Z AUTO 35013KT 5SM BR OVC008 M01/M02 A3025 RMK AO2 CIG 006V010 SLP247 T10111022
cycle: 11

Station Type Date Time Source
KCGI TAF 2023/01/30 06:22 UTC NOAA

TAF KCGI 300520Z 3006/3106 01009KT 5SM BR OVC008
TEMPO 3006/3010 2SM -FZDZ BR OVC004
FM301400 36012KT P6SM OVC008
FM301800 01003KT P6SM OVC015
FM310000 02012KT 4SM -SNPL OVC010

Example: see airport list